createdAt,value
2022-12-27T00:03:03.878Z,6.80
2022-12-27T00:10:25.499Z,7.10
2022-12-27T00:15:20.430Z,6.90
2022-12-27T00:17:47.322Z,6.70
2022-12-27T00:20:17.266Z,7.10
2022-12-27T00:22:44.320Z,7.30
2022-12-27T00:25:11.481Z,6.70
2022-12-27T00:27:38.903Z,7.40
2022-12-27T00:30:07.194Z,8.10
2022-12-27T00:32:34.502Z,7.90
2022-12-27T00:35:01.372Z,7.70
2022-12-27T00:37:28.314Z,7.90
2022-12-27T00:39:55.215Z,8.40
2022-12-27T00:42:22.100Z,8.00
2022-12-27T01:09:23.791Z,8.10
2022-12-27T01:11:50.668Z,8.10
2022-12-27T01:21:42.959Z,6.80
2022-12-27T01:34:01.343Z,7.10
2022-12-27T01:36:30.151Z,7.00
2022-12-27T01:42:08.648Z,6.60
2022-12-27T01:44:58.187Z,6.70
2022-12-27T01:48:03.413Z,6.20
2022-12-27T01:53:28.875Z,5.80
2022-12-27T01:56:04.836Z,6.40
2022-12-27T01:58:40.827Z,5.90
2022-12-27T02:01:15.391Z,5.70
2022-12-27T02:03:48.983Z,5.90
2022-12-27T02:06:17.911Z,5.20
2022-12-27T02:09:02.283Z,5.10
2022-12-27T02:11:52.062Z,5.60
2022-12-27T02:14:27.879Z,6.10
2022-12-27T02:16:58.617Z,5.80
2022-12-27T02:19:40.577Z,5.60
2022-12-27T02:22:52.586Z,5.80
2022-12-27T02:25:58.705Z,5.80
2022-12-27T02:28:52.003Z,6.50
2022-12-27T02:31:44.735Z,6.70
2022-12-27T02:34:20.094Z,6.30
2022-12-27T02:36:49.333Z,5.90
2022-12-27T02:39:17.894Z,5.50
2022-12-27T02:42:05.215Z,5.50
2022-12-27T02:44:50.998Z,5.80
2022-12-27T02:47:43.355Z,6.10
2022-12-27T02:50:31.512Z,5.70
2022-12-27T02:53:33.278Z,6.20
2022-12-27T02:57:10.063Z,5.00
2022-12-27T03:00:37.925Z,5.30
2022-12-27T03:04:06.423Z,4.60
2022-12-27T03:06:58.477Z,5.00
2022-12-27T03:10:23.058Z,5.00
2022-12-27T03:13:28.634Z,5.10
2022-12-27T03:16:11.952Z,4.80
2022-12-27T03:19:09.229Z,4.90
2022-12-27T03:22:03.195Z,5.30
2022-12-27T03:24:56.875Z,5.30
2022-12-27T03:27:32.083Z,4.90
2022-12-27T03:30:23.475Z,5.30
2022-12-27T03:33:13.902Z,5.50
2022-12-27T03:36:07.752Z,4.90
2022-12-27T03:38:43.211Z,4.60
2022-12-27T03:41:33.989Z,4.40
2022-12-27T03:46:34.821Z,4.80
2022-12-27T03:49:11.916Z,4.80
2022-12-27T03:51:47.360Z,4.60
2022-12-27T03:54:26.436Z,4.20
2022-12-27T03:57:00.930Z,4.60
2022-12-27T03:59:29.020Z,4.50
2022-12-27T04:06:51.480Z,4.80
2022-12-27T04:51:04.744Z,5.00
2022-12-27T05:30:09.372Z,5.20
2022-12-27T06:09:28.810Z,4.70
2022-12-27T06:31:39.412Z,4.90
2022-12-27T06:39:02.835Z,4.20
2022-12-27T06:43:58.262Z,4.00
2022-12-27T06:51:21.518Z,4.10
2022-12-27T06:56:20.816Z,3.80
2022-12-27T07:01:24.468Z,3.80
2022-12-27T07:03:57.616Z,3.70
2022-12-27T07:08:55.637Z,3.70
2022-12-27T07:13:54.444Z,3.60
2022-12-27T07:16:25.094Z,3.70
2022-12-27T07:21:22.922Z,3.60
2022-12-27T07:26:30.158Z,3.70
2022-12-27T07:29:00.649Z,3.90
2022-12-27T07:31:31.781Z,3.80
2022-12-27T07:34:01.896Z,3.80
2022-12-27T07:36:39.988Z,3.70
2022-12-27T07:44:04.229Z,3.80
2022-12-27T07:51:28.669Z,3.90
2022-12-27T07:56:27.185Z,3.80
2022-12-27T08:01:29.503Z,4.00
2022-12-27T08:06:31.411Z,4.20
2022-12-27T08:09:01.044Z,3.90
2022-12-27T08:16:25.637Z,4.00
2022-12-27T08:18:53.215Z,3.80
2022-12-27T08:31:12.121Z,3.90
2022-12-27T08:48:49.103Z,4.30
2022-12-27T08:53:58.481Z,4.60
2022-12-27T09:06:18.709Z,4.70
2022-12-27T09:08:47.404Z,4.50
2022-12-27T09:11:21.420Z,4.60
2022-12-27T09:16:19.918Z,4.60
2022-12-27T09:18:50.324Z,4.80
2022-12-27T09:21:18.962Z,4.90
2022-12-27T09:23:47.017Z,4.90
2022-12-27T09:26:17.920Z,4.80
2022-12-27T09:31:15.516Z,5.00
2022-12-27T09:36:17.147Z,5.00
2022-12-27T09:38:45.695Z,4.90
2022-12-27T09:45:08.909Z,4.80
2022-12-27T09:48:02.157Z,5.00
2022-12-27T09:53:27.189Z,5.20
2022-12-27T09:55:57.942Z,5.30
2022-12-27T09:58:34.240Z,5.30
2022-12-27T10:01:02.381Z,5.20
2022-12-27T10:03:30.920Z,5.30
2022-12-27T10:06:33.333Z,5.30
2022-12-27T10:12:31.798Z,5.30
2022-12-27T10:15:14.597Z,5.50
2022-12-27T10:18:19.231Z,5.50
2022-12-27T10:21:02.426Z,5.40
2022-12-27T10:23:34.976Z,5.50
2022-12-27T10:26:12.841Z,5.50
2022-12-27T10:28:45.954Z,5.50
2022-12-27T10:31:20.580Z,5.50
2022-12-27T10:33:49.649Z,5.50
2022-12-27T10:36:21.383Z,5.60
2022-12-27T10:41:40.007Z,5.40
2022-12-27T10:44:12.141Z,5.60
2022-12-27T10:49:24.385Z,5.60
2022-12-27T10:51:54.141Z,5.70
2022-12-27T10:54:29.588Z,5.70
2022-12-27T10:57:15.718Z,5.90
2022-12-27T11:02:19.700Z,5.80
2022-12-27T11:07:34.621Z,5.90
2022-12-27T11:10:19.911Z,5.70
2022-12-27T11:13:06.758Z,5.70
2022-12-27T11:15:45.377Z,5.80
2022-12-27T11:18:20.564Z,5.80
2022-12-27T11:20:55.058Z,5.90
2022-12-27T11:23:25.807Z,5.80
2022-12-27T11:25:56.271Z,5.80
2022-12-27T11:28:39.866Z,6.10
2022-12-27T11:33:51.994Z,6.00
2022-12-27T11:36:34.106Z,5.90
2022-12-27T11:39:02.013Z,6.00
2022-12-27T11:44:20.803Z,6.00
2022-12-27T11:47:03.708Z,6.00
2022-12-27T11:52:51.283Z,6.20
2022-12-27T11:55:37.957Z,6.10
2022-12-27T11:58:38.615Z,6.30
2022-12-27T12:01:44.757Z,6.20
2022-12-27T12:04:44.222Z,6.20
2022-12-27T12:07:59.086Z,6.10
2022-12-27T12:11:21.419Z,6.20
2022-12-27T12:14:04.072Z,6.10
2022-12-27T12:17:14.217Z,6.50
2022-12-27T12:20:10.749Z,6.30
2022-12-27T12:26:22.373Z,6.60
2022-12-27T12:29:15.542Z,6.50
2022-12-27T12:32:26.542Z,6.60
2022-12-27T12:34:59.136Z,6.60
2022-12-27T12:37:43.222Z,6.60
2022-12-27T12:40:51.764Z,6.80
2022-12-27T12:43:49.972Z,6.80
2022-12-27T12:46:38.763Z,6.70
2022-12-27T12:49:46.720Z,6.70
2022-12-27T12:52:29.223Z,6.50
2022-12-27T12:55:23.331Z,6.70
2022-12-27T12:58:19.903Z,6.60
2022-12-27T13:01:01.533Z,6.60
2022-12-27T13:04:06.371Z,6.60
2022-12-27T13:07:01.245Z,6.50
2022-12-27T13:09:52.991Z,6.50
2022-12-27T13:12:52.268Z,6.60
2022-12-27T13:15:54.508Z,6.70
2022-12-27T13:18:37.006Z,6.70
2022-12-27T13:21:09.769Z,6.50
2022-12-27T13:23:50.085Z,7.70
2022-12-27T13:26:30.316Z,6.60
2022-12-27T13:29:29.495Z,7.00
2022-12-27T13:32:17.864Z,6.80
2022-12-27T13:35:21.605Z,6.90
2022-12-27T13:41:10.777Z,7.20
2022-12-27T13:44:04.828Z,7.00
2022-12-27T13:47:10.590Z,7.10
2022-12-27T13:50:35.299Z,7.20
2022-12-27T13:53:56.287Z,7.00
2022-12-27T13:56:55.113Z,6.90
2022-12-27T14:00:01.234Z,7.00
2022-12-27T14:03:11.872Z,7.00
2022-12-27T14:05:41.450Z,6.90
2022-12-27T14:08:46.207Z,7.00
2022-12-27T14:12:00.308Z,6.90
2022-12-27T14:14:29.406Z,7.00
2022-12-27T14:17:14.416Z,6.80
2022-12-27T14:20:02.557Z,6.80
2022-12-27T14:23:11.915Z,6.90
2022-12-27T14:26:18.001Z,6.90
2022-12-27T14:29:36.393Z,6.90
2022-12-27T14:37:47.006Z,6.70
2022-12-27T14:40:57.484Z,6.70
2022-12-27T14:44:10.463Z,6.80
2022-12-27T14:46:47.295Z,6.60
2022-12-27T14:52:55.963Z,6.70
2022-12-27T14:55:42.996Z,6.60
2022-12-27T14:58:51.567Z,6.60
2022-12-27T15:01:52.145Z,6.70
2022-12-27T15:04:58.404Z,6.60
2022-12-27T15:07:55.565Z,6.60
2022-12-27T15:13:56.025Z,6.50
2022-12-27T15:17:01.962Z,6.70
2022-12-27T15:20:27.622Z,6.40
2022-12-27T15:23:32.668Z,6.40
2022-12-27T15:26:24.342Z,6.30
2022-12-27T15:29:20.357Z,6.30
2022-12-27T15:32:25.614Z,6.30
2022-12-27T15:35:33.995Z,6.30
2022-12-27T15:38:17.964Z,6.20
2022-12-27T15:41:06.717Z,6.20
2022-12-27T15:44:18.887Z,6.20
2022-12-27T15:47:56.614Z,6.10
2022-12-27T15:51:15.081Z,5.90
2022-12-27T15:54:08.344Z,6.10
2022-12-27T15:57:51.073Z,6.10
2022-12-27T16:00:24.123Z,5.90
2022-12-27T16:02:55.966Z,5.80
2022-12-27T16:08:03.601Z,5.80
2022-12-27T16:13:12.689Z,5.80
2022-12-27T16:15:49.448Z,5.60
2022-12-27T16:18:19.483Z,6.40
2022-12-27T16:21:23.079Z,5.80
2022-12-27T16:23:55.249Z,5.80
2022-12-27T16:26:27.064Z,5.70
2022-12-27T16:29:02.696Z,6.00
2022-12-27T16:31:33.020Z,5.80
2022-12-27T16:34:24.913Z,5.80
2022-12-27T16:36:54.290Z,5.90
2022-12-27T16:39:45.348Z,5.80
2022-12-27T16:44:53.124Z,5.80
2022-12-27T16:48:07.792Z,5.70
2022-12-27T16:51:02.774Z,5.60
2022-12-27T16:54:05.137Z,5.40
2022-12-27T17:04:54.838Z,5.20
2022-12-27T17:07:41.522Z,5.30
2022-12-27T17:10:27.228Z,5.50
2022-12-27T17:13:31.364Z,5.40
2022-12-27T17:19:01.040Z,5.30
2022-12-27T17:24:15.747Z,5.00
2022-12-27T17:26:58.099Z,5.20
2022-12-27T17:34:42.749Z,5.30
2022-12-27T17:37:29.385Z,5.10
2022-12-27T17:40:45.733Z,5.30
2022-12-27T17:44:19.911Z,5.40
2022-12-27T17:47:13.380Z,4.90
2022-12-27T17:52:37.334Z,5.10
2022-12-27T17:55:49.360Z,5.20
2022-12-27T17:58:17.239Z,5.00
2022-12-27T18:00:58.163Z,5.20
2022-12-27T18:03:35.722Z,5.10
2022-12-27T18:08:34.003Z,4.70
2022-12-27T18:11:06.514Z,5.30
2022-12-27T18:13:41.991Z,5.10
2022-12-27T18:16:24.705Z,5.50
2022-12-27T18:18:54.214Z,5.10
2022-12-27T18:21:28.187Z,4.90
2022-12-27T18:26:41.159Z,4.90
2022-12-27T18:29:12.353Z,4.90
2022-12-27T18:31:50.214Z,4.50
2022-12-27T18:34:34.296Z,5.00
2022-12-27T18:37:11.352Z,4.80
2022-12-27T18:40:00.540Z,4.70
2022-12-27T18:42:44.678Z,5.00
2022-12-27T18:45:31.402Z,4.80
2022-12-27T18:48:01.060Z,4.60
2022-12-27T18:50:31.546Z,7.00
2022-12-27T18:53:36.087Z,4.70
2022-12-27T18:56:13.472Z,4.40
2022-12-27T18:59:19.267Z,5.10
2022-12-27T19:01:48.425Z,5.10
2022-12-27T19:06:59.479Z,5.20
2022-12-27T19:09:35.492Z,5.30
2022-12-27T19:12:26.682Z,5.30
2022-12-27T19:17:25.968Z,5.20
2022-12-27T19:19:57.649Z,5.20
2022-12-27T19:22:47.521Z,5.30
2022-12-27T19:25:39.531Z,5.30
2022-12-27T19:28:12.986Z,5.30
2022-12-27T19:30:52.935Z,5.30
2022-12-27T19:33:27.384Z,5.30
2022-12-27T19:40:58.181Z,5.10
2022-12-27T19:43:42.654Z,5.20
2022-12-27T19:46:14.210Z,5.20
2022-12-27T19:51:20.061Z,5.10
2022-12-27T19:53:57.829Z,5.20
2022-12-27T20:11:22.578Z,5.00
2022-12-27T20:16:19.491Z,4.90
2022-12-27T20:21:19.824Z,4.80
2022-12-27T20:26:21.841Z,4.90
2022-12-27T20:31:20.105Z,4.90
2022-12-27T20:33:52.719Z,7.30
2022-12-27T20:41:21.281Z,4.90
2022-12-27T20:46:22.416Z,5.00
2022-12-27T20:51:25.128Z,4.80
2022-12-27T20:53:57.503Z,4.70
2022-12-27T21:01:26.081Z,4.70
2022-12-27T21:04:01.539Z,4.70
2022-12-27T21:06:30.490Z,4.80
2022-12-27T21:08:58.825Z,4.70
2022-12-27T21:16:34.037Z,4.70
2022-12-27T21:21:35.712Z,4.60
2022-12-27T21:29:03.872Z,4.70
2022-12-27T21:34:00.068Z,4.80
2022-12-27T21:36:30.372Z,5.10
2022-12-27T21:41:30.094Z,4.60
2022-12-27T21:46:30.428Z,4.50
2022-12-27T21:49:00.528Z,4.40
2022-12-27T21:51:30.176Z,4.40
2022-12-27T21:56:25.613Z,4.50
2022-12-27T22:01:51.416Z,3.70
2022-12-27T22:04:21.266Z,4.50
2022-12-27T22:16:39.630Z,4.30
2022-12-27T22:19:09.056Z,4.30
2022-12-27T22:21:37.902Z,4.40
2022-12-27T22:26:39.599Z,4.50
2022-12-27T22:31:37.663Z,3.90
2022-12-27T22:34:05.969Z,4.30
2022-12-27T22:36:34.083Z,4.60
2022-12-27T22:41:35.833Z,4.40
2022-12-27T22:44:10.089Z,4.10
2022-12-27T23:04:14.376Z,4.20
2022-12-27T23:06:42.520Z,4.20
2022-12-27T23:11:40.729Z,4.10
2022-12-27T23:14:13.839Z,4.10
2022-12-27T23:16:46.027Z,4.30
2022-12-27T23:26:39.972Z,4.20
2022-12-27T23:36:32.043Z,4.10
2022-12-27T23:41:26.939Z,4.00
2022-12-27T23:43:55.995Z,4.10
2022-12-27T23:46:32.966Z,4.10
2022-12-27T23:49:02.917Z,4.10
2022-12-27T23:51:31.349Z,4.10
2022-12-27T23:56:28.994Z,3.90
2022-12-27T23:58:59.650Z,3.80
